createdAt,value
2022-09-07T00:01:12.088Z,4.75
2022-09-07T00:03:39.919Z,3.60
2022-09-07T00:06:10.187Z,5.32
2022-09-07T00:08:38.791Z,4.22
2022-09-07T00:11:11.830Z,3.50
2022-09-07T00:13:41.625Z,3.88
2022-09-07T00:16:16.369Z,4.95
2022-09-07T00:18:46.293Z,3.95
2022-09-07T00:21:16.407Z,5.25
2022-09-07T00:23:45.147Z,3.97
2022-09-07T00:26:27.959Z,5.30
2022-09-07T00:29:01.410Z,4.20
2022-09-07T00:31:30.526Z,4.40
2022-09-07T00:34:00.523Z,4.13
2022-09-07T00:36:28.767Z,3.92
2022-09-07T00:38:56.623Z,5.93
2022-09-07T00:41:24.907Z,4.20
2022-09-07T00:43:58.628Z,8.18
2022-09-07T00:46:33.956Z,7.35
2022-09-07T00:49:08.329Z,9.95
2022-09-07T00:51:46.133Z,10.25
2022-09-07T00:54:23.927Z,5.15
2022-09-07T00:56:53.818Z,5.70
2022-09-07T00:59:26.041Z,4.28
2022-09-07T01:01:54.098Z,6.30
2022-09-07T01:04:23.390Z,6.00
2022-09-07T01:06:51.632Z,7.20
2022-09-07T01:09:23.065Z,5.25
2022-09-07T01:11:57.727Z,6.55
2022-09-07T01:14:33.872Z,4.95
2022-09-07T01:17:13.435Z,4.90
2022-09-07T01:20:08.900Z,3.80
2022-09-07T01:22:49.986Z,3.90
2022-09-07T01:25:20.623Z,4.55
2022-09-07T01:28:09.947Z,6.00
2022-09-07T01:30:40.413Z,4.53
2022-09-07T01:33:13.946Z,7.68
2022-09-07T01:36:18.623Z,4.53
2022-09-07T01:38:59.324Z,5.70
2022-09-07T01:41:36.771Z,8.35
2022-09-07T01:44:22.879Z,5.68
2022-09-07T01:47:01.965Z,6.00
2022-09-07T01:49:42.696Z,4.45
2022-09-07T01:52:19.708Z,5.20
2022-09-07T01:55:02.681Z,5.40
2022-09-07T01:57:41.754Z,7.18
2022-09-07T02:00:16.561Z,4.18
2022-09-07T02:03:01.749Z,6.82
2022-09-07T02:05:46.397Z,5.10
2022-09-07T02:08:21.254Z,4.82
2022-09-07T02:10:55.032Z,5.38
2022-09-07T02:13:56.763Z,4.65
2022-09-07T02:16:28.338Z,5.95
2022-09-07T02:19:07.673Z,7.35
2022-09-07T02:21:49.982Z,6.38
2022-09-07T02:24:24.350Z,5.78
2022-09-07T02:26:54.585Z,6.13
2022-09-07T02:29:22.774Z,6.38
2022-09-07T02:31:52.269Z,5.45
2022-09-07T02:34:20.392Z,8.02
2022-09-07T02:36:50.743Z,8.57
2022-09-07T02:39:18.635Z,6.85
2022-09-07T02:41:46.886Z,6.88
2022-09-07T02:44:21.412Z,6.40
2022-09-07T02:47:07.710Z,8.05
2022-09-07T02:50:13.146Z,5.35
2022-09-07T02:52:59.327Z,5.60
2022-09-07T02:55:40.609Z,7.57
2022-09-07T02:58:46.704Z,5.88
2022-09-07T03:01:21.081Z,6.70
2022-09-07T03:04:10.991Z,5.53
2022-09-07T03:06:49.897Z,4.70
2022-09-07T03:09:21.192Z,8.20
2022-09-07T03:11:50.197Z,7.03
2022-09-07T03:14:25.100Z,4.38
2022-09-07T03:16:56.273Z,7.32
2022-09-07T03:19:24.197Z,8.30
2022-09-07T03:21:52.372Z,8.05
2022-09-07T03:24:20.137Z,5.70
2022-09-07T03:26:49.135Z,7.10
2022-09-07T03:29:17.157Z,4.32
2022-09-07T03:31:45.671Z,6.28
2022-09-07T03:34:13.498Z,5.20
2022-09-07T03:36:41.346Z,6.07
2022-09-07T03:39:12.607Z,4.88
2022-09-07T03:41:40.533Z,8.13
2022-09-07T03:44:09.121Z,7.78
2022-09-07T03:46:37.138Z,7.22
2022-09-07T03:49:05.128Z,8.15
2022-09-07T03:51:33.122Z,6.90
2022-09-07T03:54:00.955Z,8.93
2022-09-07T03:56:28.816Z,6.55
2022-09-07T03:58:56.656Z,8.82
2022-09-07T04:01:27.334Z,7.38
2022-09-07T04:04:02.095Z,5.93
2022-09-07T04:06:31.534Z,6.35
2022-09-07T04:09:07.287Z,6.95
2022-09-07T04:11:35.933Z,7.25
2022-09-07T04:14:04.261Z,9.52
2022-09-07T04:16:32.156Z,7.75
2022-09-07T04:19:00.815Z,8.07
2022-09-07T04:21:30.804Z,9.00
2022-09-07T04:23:59.360Z,8.43
2022-09-07T04:26:30.307Z,9.43
2022-09-07T04:28:58.869Z,8.38
2022-09-07T04:31:27.465Z,8.45
2022-09-07T04:33:56.931Z,10.48
2022-09-07T04:36:25.405Z,8.90
2022-09-07T04:38:59.812Z,7.88
2022-09-07T04:41:29.498Z,8.57
2022-09-07T04:44:02.294Z,11.68
2022-09-07T04:46:36.182Z,12.13
2022-09-07T04:51:39.238Z,8.20
2022-09-07T04:54:07.518Z,8.38
2022-09-07T04:56:35.669Z,8.50
2022-09-07T04:59:04.307Z,9.23
2022-09-07T05:01:32.407Z,12.18
2022-09-07T05:04:01.694Z,13.63
2022-09-07T05:06:29.852Z,24.52
2022-09-07T05:08:59.119Z,21.50
2022-09-07T05:11:29.392Z,24.05
2022-09-07T05:13:59.729Z,24.30
2022-09-07T05:16:28.667Z,22.25
2022-09-07T05:18:59.238Z,24.73
2022-09-07T05:21:29.953Z,22.20
2022-09-07T05:23:59.437Z,19.52
2022-09-07T05:26:30.464Z,20.27
2022-09-07T05:31:50.583Z,24.48
2022-09-07T05:34:34.219Z,24.38
2022-09-07T05:37:02.395Z,19.27
2022-09-07T05:39:30.357Z,19.30
2022-09-07T05:41:58.326Z,16.48
2022-09-07T05:47:14.287Z,18.85
2022-09-07T05:49:42.209Z,20.25
2022-09-07T05:52:10.555Z,13.70
2022-09-07T05:54:38.418Z,15.95
2022-09-07T05:57:07.467Z,17.13
2022-09-07T05:59:35.454Z,9.80
2022-09-07T06:02:03.418Z,8.07
2022-09-07T06:04:31.497Z,12.27
2022-09-07T06:07:20.540Z,12.48
2022-09-07T06:12:35.443Z,10.75
2022-09-07T06:15:03.482Z,7.38
2022-09-07T06:17:31.753Z,7.72
2022-09-07T06:19:59.822Z,7.88
2022-09-07T06:22:30.918Z,6.82
2022-09-07T06:24:59.917Z,6.13
2022-09-07T06:27:28.113Z,9.35
2022-09-07T06:29:56.384Z,7.45
2022-09-07T06:35:13.864Z,5.05
2022-09-07T06:37:43.115Z,6.10
2022-09-07T06:40:11.829Z,6.53
2022-09-07T06:42:40.072Z,5.65
2022-09-07T06:45:11.757Z,5.65
2022-09-07T06:47:40.495Z,9.25
2022-09-07T06:50:09.202Z,7.20
2022-09-07T06:55:29.006Z,12.68
2022-09-07T06:57:56.949Z,8.43
2022-09-07T07:00:24.923Z,9.65
2022-09-07T07:02:52.952Z,7.95
2022-09-07T07:05:20.850Z,11.45
2022-09-07T07:07:48.864Z,14.88
2022-09-07T07:10:19.722Z,20.20
2022-09-07T07:12:50.321Z,13.80
2022-09-07T07:15:18.376Z,18.10
2022-09-07T07:17:51.939Z,14.93
2022-09-07T07:20:23.981Z,13.88
2022-09-07T07:22:52.833Z,13.70
2022-09-07T07:25:21.366Z,12.80
2022-09-07T07:27:50.410Z,10.02
2022-09-07T07:30:19.404Z,10.82
2022-09-07T07:32:47.383Z,11.15
2022-09-07T07:35:15.588Z,11.52
2022-09-07T07:37:43.524Z,10.82
2022-09-07T07:42:47.309Z,11.23
2022-09-07T07:48:04.162Z,13.70
2022-09-07T07:50:34.580Z,11.60
2022-09-07T07:55:51.591Z,12.27
2022-09-07T07:58:19.717Z,10.30
2022-09-07T08:00:54.751Z,11.65
2022-09-07T08:03:24.185Z,7.53
2022-09-07T08:05:52.288Z,8.38
2022-09-07T08:08:20.479Z,9.20
2022-09-07T08:10:48.345Z,10.52
2022-09-07T08:13:17.212Z,10.88
2022-09-07T08:15:46.466Z,12.40
2022-09-07T08:18:17.430Z,11.57
2022-09-07T08:20:45.482Z,11.13
2022-09-07T08:23:13.363Z,11.60
2022-09-07T08:25:53.461Z,11.57
2022-09-07T08:28:23.604Z,11.32
2022-09-07T08:30:51.642Z,8.57
2022-09-07T08:33:19.732Z,10.68
2022-09-07T08:36:04.354Z,12.00
2022-09-07T08:38:33.799Z,7.25
2022-09-07T08:41:03.626Z,5.13
2022-09-07T08:43:49.253Z,3.67
2022-09-07T08:46:40.908Z,3.33
2022-09-07T08:49:16.919Z,3.90
2022-09-07T08:51:51.187Z,4.07
2022-09-07T08:54:19.215Z,3.28
2022-09-07T09:00:08.946Z,5.10
2022-09-07T09:02:43.517Z,5.05
2022-09-07T09:05:36.371Z,3.40
2022-09-07T09:08:41.383Z,3.72
2022-09-07T09:11:21.011Z,3.03
2022-09-07T09:14:06.483Z,2.08
2022-09-07T09:16:47.710Z,2.97
2022-09-07T09:19:34.024Z,3.42
2022-09-07T09:22:15.342Z,7.50
2022-09-07T09:24:54.756Z,2.60
2022-09-07T09:27:23.047Z,2.78
2022-09-07T09:29:50.941Z,2.35
2022-09-07T09:32:53.887Z,2.42
2022-09-07T09:35:37.400Z,2.88
2022-09-07T09:38:05.981Z,5.78
2022-09-07T09:40:36.742Z,2.80
2022-09-07T09:43:21.819Z,2.17
2022-09-07T09:48:41.822Z,2.35
2022-09-07T10:05:29.524Z,2.88
2022-09-07T10:07:58.143Z,5.82
2022-09-07T10:10:28.141Z,5.55
2022-09-07T10:12:56.763Z,2.30
2022-09-07T10:15:40.438Z,1.98
2022-09-07T10:18:21.474Z,5.60
2022-09-07T10:20:49.614Z,2.22
2022-09-07T10:23:27.616Z,3.38
2022-09-07T10:25:55.529Z,4.10
2022-09-07T10:28:25.148Z,5.57
2022-09-07T10:31:17.259Z,1.58
2022-09-07T10:36:55.068Z,2.30
2022-09-07T10:39:31.694Z,2.53
2022-09-07T10:42:29.179Z,4.60
2022-09-07T10:45:24.107Z,2.10
2022-09-07T10:48:25.633Z,3.45
2022-09-07T10:51:14.099Z,3.53
2022-09-07T10:57:05.277Z,5.28
2022-09-07T11:06:02.753Z,2.17
2022-09-07T11:09:17.283Z,3.40
2022-09-07T11:12:21.311Z,4.30
2022-09-07T11:15:10.117Z,3.15
2022-09-07T11:18:03.846Z,2.50
2022-09-07T11:20:43.784Z,5.00
2022-09-07T11:23:20.901Z,5.03
2022-09-07T11:25:56.742Z,2.78
2022-09-07T11:28:37.217Z,3.03
2022-09-07T11:31:36.365Z,2.78
2022-09-07T11:34:31.391Z,4.07
2022-09-07T11:37:09.847Z,3.67
2022-09-07T11:39:53.761Z,4.18
2022-09-07T11:42:49.045Z,3.85
2022-09-07T11:45:36.899Z,2.80
2022-09-07T11:48:19.347Z,2.83
2022-09-07T11:50:56.347Z,3.83
2022-09-07T11:53:31.333Z,2.80
2022-09-07T11:56:05.973Z,2.60
2022-09-07T11:58:55.826Z,2.80
2022-09-07T12:01:43.019Z,4.22
2022-09-07T12:04:44.341Z,2.88
2022-09-07T12:10:06.647Z,4.80
2022-09-07T12:12:49.814Z,2.97
2022-09-07T12:15:29.718Z,2.70
2022-09-07T12:18:16.552Z,3.70
2022-09-07T12:20:47.417Z,5.15
2022-09-07T12:23:15.259Z,3.28
2022-09-07T12:25:52.331Z,3.17
2022-09-07T12:28:37.581Z,2.55
2022-09-07T12:31:39.138Z,3.17
2022-09-07T12:34:30.067Z,2.78
2022-09-07T12:37:12.381Z,2.70
2022-09-07T12:39:44.097Z,4.72
2022-09-07T12:45:29.137Z,3.38
2022-09-07T12:47:59.962Z,3.08
2022-09-07T12:50:37.044Z,3.45
2022-09-07T12:53:13.318Z,2.70
2022-09-07T12:58:46.921Z,4.07
2022-09-07T13:01:45.087Z,3.15
2022-09-07T13:04:41.097Z,6.20
2022-09-07T13:07:34.831Z,3.03
2022-09-07T13:10:35.443Z,2.85
2022-09-07T13:13:16.193Z,5.63
2022-09-07T13:15:51.305Z,4.05
2022-09-07T13:18:29.705Z,4.18
2022-09-07T13:21:09.899Z,2.45
2022-09-07T13:23:40.270Z,3.97
2022-09-07T13:26:33.540Z,3.00
2022-09-07T13:29:14.274Z,3.60
2022-09-07T13:32:01.118Z,5.65
2022-09-07T13:34:35.036Z,2.28
2022-09-07T13:37:06.625Z,4.90
2022-09-07T13:39:44.746Z,3.15
2022-09-07T13:42:23.217Z,2.83
2022-09-07T13:45:00.091Z,3.03
2022-09-07T13:47:40.060Z,3.10
2022-09-07T13:50:36.760Z,8.98
2022-09-07T13:53:41.659Z,3.08
2022-09-07T13:56:22.058Z,9.45
2022-09-07T13:58:53.696Z,5.53
2022-09-07T14:01:29.253Z,5.35
2022-09-07T14:04:09.604Z,2.67
2022-09-07T14:06:38.849Z,3.33
2022-09-07T14:09:22.853Z,2.75
2022-09-07T14:11:54.585Z,3.80
2022-09-07T14:14:29.976Z,7.72
2022-09-07T14:17:03.806Z,3.35
2022-09-07T14:19:38.348Z,3.38
2022-09-07T14:22:11.662Z,2.53
2022-09-07T14:24:43.500Z,3.08
2022-09-07T14:27:42.053Z,3.20
2022-09-07T14:30:32.184Z,4.43
2022-09-07T14:33:03.558Z,3.08
2022-09-07T14:35:37.762Z,4.25
2022-09-07T14:41:15.751Z,3.45
2022-09-07T14:43:58.332Z,3.72
2022-09-07T14:46:36.652Z,3.20
2022-09-07T14:49:20.273Z,5.28
2022-09-07T14:51:49.048Z,6.15
2022-09-07T14:54:31.463Z,3.55
2022-09-07T14:57:02.846Z,3.95
2022-09-07T14:59:43.387Z,5.85
2022-09-07T15:02:26.743Z,3.85
2022-09-07T15:05:18.904Z,12.35
2022-09-07T15:08:02.035Z,6.68
2022-09-07T15:10:38.332Z,5.47
2022-09-07T15:13:23.980Z,5.88
2022-09-07T15:16:02.372Z,6.35
2022-09-07T15:19:06.203Z,4.10
2022-09-07T15:21:46.036Z,3.47
2022-09-07T15:24:20.717Z,3.88
2022-09-07T15:27:06.208Z,3.95
2022-09-07T15:29:37.280Z,6.20
2022-09-07T15:32:09.717Z,6.50
2022-09-07T15:34:41.806Z,5.50
2022-09-07T15:40:02.091Z,3.35
2022-09-07T15:45:21.703Z,3.40
2022-09-07T15:47:52.811Z,3.28
2022-09-07T15:50:23.418Z,2.90
2022-09-07T15:52:51.792Z,5.50
2022-09-07T15:55:19.760Z,8.35
2022-09-07T15:57:50.186Z,5.05
2022-09-07T16:00:20.418Z,10.10
2022-09-07T16:03:06.120Z,5.10
2022-09-07T16:05:36.791Z,10.75
2022-09-07T16:11:05.303Z,9.15
2022-09-07T16:13:35.725Z,15.55
2022-09-07T16:16:06.791Z,3.25
2022-09-07T16:18:38.252Z,6.25
2022-09-07T16:21:12.609Z,3.20
2022-09-07T16:23:43.394Z,3.50
2022-09-07T16:26:12.243Z,2.97
2022-09-07T16:28:45.740Z,3.25
2022-09-07T16:31:16.919Z,4.53
2022-09-07T16:33:45.032Z,4.80
2022-09-07T16:36:16.374Z,5.75
2022-09-07T16:38:50.958Z,4.50
2022-09-07T16:41:27.273Z,4.22
2022-09-07T16:43:56.197Z,7.53
2022-09-07T16:46:27.126Z,3.10
2022-09-07T16:48:55.448Z,3.88
2022-09-07T16:51:24.740Z,3.40
2022-09-07T16:53:56.411Z,3.70
2022-09-07T16:56:27.979Z,4.05
2022-09-07T16:59:01.616Z,5.47
2022-09-07T17:01:32.564Z,4.05
2022-09-07T17:04:05.425Z,5.05
2022-09-07T17:06:36.051Z,4.88
2022-09-07T17:09:04.407Z,6.50
2022-09-07T17:11:34.484Z,9.48
2022-09-07T17:14:02.631Z,7.53
2022-09-07T17:16:32.805Z,5.97
2022-09-07T17:21:52.873Z,6.03
2022-09-07T17:24:21.677Z,6.03
2022-09-07T17:26:49.535Z,4.78
2022-09-07T17:29:17.429Z,5.28
2022-09-07T17:34:33.731Z,3.78
2022-09-07T17:37:01.758Z,5.10
2022-09-07T17:39:30.302Z,5.25
2022-09-07T17:41:58.707Z,3.78
2022-09-07T17:44:30.819Z,11.40
2022-09-07T17:47:01.253Z,4.18
2022-09-07T17:49:29.606Z,7.90
2022-09-07T17:51:58.790Z,5.68
2022-09-07T17:54:27.228Z,9.02
2022-09-07T17:56:55.036Z,4.38
2022-09-07T18:02:14.079Z,3.92
2022-09-07T18:04:43.111Z,4.22
2022-09-07T18:07:11.289Z,6.03
2022-09-07T18:09:39.240Z,6.05
2022-09-07T18:12:07.299Z,4.25
2022-09-07T18:14:36.521Z,4.60
2022-09-07T18:17:05.764Z,4.22
2022-09-07T18:19:33.803Z,4.63
2022-09-07T18:22:04.031Z,4.88
2022-09-07T18:24:32.188Z,4.07
2022-09-07T18:27:00.106Z,4.20
2022-09-07T18:29:33.027Z,4.22
2022-09-07T18:32:07.511Z,4.80
2022-09-07T18:34:37.837Z,4.15
2022-09-07T18:37:07.137Z,4.47
2022-09-07T18:39:36.681Z,5.35
2022-09-07T18:47:28.907Z,20.40
2022-09-07T18:49:57.770Z,5.80
2022-09-07T18:55:14.139Z,7.47
2022-09-07T18:57:42.535Z,6.05
2022-09-07T19:00:12.767Z,4.15
2022-09-07T19:02:40.880Z,3.78
2022-09-07T19:07:57.074Z,4.43
2022-09-07T19:10:25.092Z,4.95
2022-09-07T19:12:54.049Z,4.93
2022-09-07T19:15:21.998Z,3.13
2022-09-07T19:17:49.885Z,5.65
2022-09-07T19:20:18.092Z,5.18
2022-09-07T19:22:46.129Z,4.05
2022-09-07T19:25:14.048Z,7.10
2022-09-07T19:27:42.713Z,4.90
2022-09-07T19:30:11.303Z,9.70
2022-09-07T19:32:39.487Z,4.80
2022-09-07T19:35:07.802Z,4.80
2022-09-07T19:37:35.973Z,6.18
2022-09-07T19:40:05.097Z,4.28
2022-09-07T19:42:36.722Z,7.10
2022-09-07T19:45:07.107Z,5.90
2022-09-07T19:47:37.315Z,6.82
2022-09-07T19:50:07.195Z,4.07
2022-09-07T19:52:35.487Z,6.55
2022-09-07T19:55:04.246Z,5.00
2022-09-07T19:57:32.652Z,4.95
2022-09-07T20:00:01.757Z,4.68
2022-09-07T20:02:40.187Z,6.85
2022-09-07T20:05:09.209Z,5.43
2022-09-07T20:07:39.122Z,4.82
2022-09-07T20:10:07.452Z,6.97
2022-09-07T20:12:35.361Z,5.30
2022-09-07T20:15:03.465Z,6.70
2022-09-07T20:17:35.138Z,3.53
2022-09-07T20:20:05.279Z,3.92
2022-09-07T20:22:33.638Z,4.43
2022-09-07T20:25:01.656Z,4.20
2022-09-07T20:27:30.796Z,7.30
2022-09-07T20:30:00.181Z,3.83
2022-09-07T20:32:28.640Z,4.78
2022-09-07T20:34:57.172Z,3.95
2022-09-07T20:37:28.437Z,5.90
2022-09-07T20:39:57.437Z,6.30
2022-09-07T20:42:27.434Z,5.22
2022-09-07T20:44:55.396Z,3.75
2022-09-07T20:47:24.082Z,3.83
2022-09-07T20:49:52.415Z,4.90
2022-09-07T20:52:21.005Z,7.85
2022-09-07T20:54:53.538Z,3.92
2022-09-07T20:57:22.921Z,5.90
2022-09-07T20:59:53.774Z,9.98
2022-09-07T21:02:26.491Z,3.60
2022-09-07T21:04:55.304Z,6.95
2022-09-07T21:07:24.383Z,6.53
2022-09-07T21:09:53.511Z,6.40
2022-09-07T21:12:22.371Z,6.05
2022-09-07T21:14:54.464Z,3.35
2022-09-07T21:17:27.377Z,5.70
2022-09-07T21:20:07.969Z,4.18
2022-09-07T21:22:38.102Z,4.32
2022-09-07T21:25:07.875Z,4.32
2022-09-07T21:27:39.595Z,3.95
2022-09-07T21:30:08.076Z,4.60
2022-09-07T21:32:35.922Z,4.00
2022-09-07T21:35:03.873Z,7.22
2022-09-07T21:37:31.895Z,3.03
2022-09-07T21:39:59.914Z,7.40
2022-09-07T21:42:27.804Z,3.00
2022-09-07T21:44:55.632Z,3.67
2022-09-07T21:47:23.545Z,7.57
2022-09-07T21:49:52.151Z,6.05
2022-09-07T21:52:20.667Z,2.78
2022-09-07T21:54:48.535Z,4.47
2022-09-07T21:57:16.308Z,4.15
2022-09-07T21:59:49.749Z,2.95
2022-09-07T22:02:18.467Z,3.17
2022-09-07T22:04:46.301Z,4.30
2022-09-07T22:07:14.751Z,4.18
2022-09-07T22:09:43.050Z,2.78
2022-09-07T22:12:10.958Z,5.53
2022-09-07T22:14:38.897Z,3.60
2022-09-07T22:17:06.820Z,5.43
2022-09-07T22:19:34.723Z,3.33
2022-09-07T22:22:02.559Z,4.13
2022-09-07T22:24:30.572Z,5.05
2022-09-07T22:26:58.915Z,5.90
2022-09-07T22:29:26.965Z,3.70
2022-09-07T22:31:54.917Z,7.78
2022-09-07T22:34:22.836Z,4.53
2022-09-07T22:36:50.680Z,5.90
2022-09-07T22:39:19.410Z,6.05
2022-09-07T22:41:48.114Z,4.75
2022-09-07T22:44:21.644Z,4.57
2022-09-07T22:47:05.596Z,3.88
2022-09-07T22:49:42.787Z,3.92
2022-09-07T22:52:11.583Z,5.93
2022-09-07T22:54:39.788Z,5.75
2022-09-07T22:57:08.245Z,4.35
2022-09-07T22:59:39.564Z,4.55
2022-09-07T23:02:07.735Z,5.15
2022-09-07T23:04:35.819Z,7.35
2022-09-07T23:07:03.817Z,7.07
2022-09-07T23:09:32.070Z,4.68
2022-09-07T23:11:59.928Z,5.72
2022-09-07T23:14:27.940Z,3.90
2022-09-07T23:16:55.813Z,6.82
2022-09-07T23:19:23.846Z,4.05
2022-09-07T23:21:51.725Z,5.07
2022-09-07T23:24:19.809Z,3.85
2022-09-07T23:26:47.821Z,4.85
2022-09-07T23:29:16.346Z,3.60
2022-09-07T23:31:45.965Z,4.63
2022-09-07T23:34:14.158Z,3.95
2022-09-07T23:36:42.122Z,3.47
2022-09-07T23:39:12.990Z,6.15
2022-09-07T23:41:40.934Z,4.15
2022-09-07T23:44:09.036Z,3.28
2022-09-07T23:46:37.337Z,4.00
2022-09-07T23:49:05.529Z,4.03
2022-09-07T23:51:33.655Z,5.93
2022-09-07T23:54:01.668Z,3.88
2022-09-07T23:56:31.414Z,3.30
2022-09-07T23:58:59.439Z,5.93
